Time;durP1;ratioP1;P1;durP2;ratioP2;P2;SDS_P1;SDS_P2;PMS_P1;PMS_P2;Temp;Humidity;BMP_temperature;BMP_pressure;BME280_temperature;BME280_humidity;BME280_pressure;Samples;Min_cycle;Max_cycle;Signal;HPM_P1;HPM_P2
2021/12/11 00:02:32;;;;;;;55.30;28.20;;;1.30;61.80;;;;;;6259867;28;20316;-54
2021/12/11 00:05:37;;;;;;;59.73;29.23;;;1.30;61.10;;;;;;6281163;28;20239;-55
2021/12/11 00:08:41;;;;;;;58.63;30.63;;;1.20;61.80;;;;;;6290484;28;20230;-56
2021/12/11 00:11:53;;;;;;;61.80;31.07;;;1.30;61.60;;;;;;6286422;28;20309;-55
2021/12/11 00:15:01;;;;;;;51.03;28.33;;;1.40;61.90;;;;;;6280874;28;20360;-56
2021/12/11 00:18:08;;;;;;;53.40;27.10;;;1.20;61.10;;;;;;6267242;28;20305;-55
2021/12/11 00:21:15;;;;;;;47.70;27.33;;;1.10;61.40;;;;;;6263986;28;20310;-52
2021/12/11 00:24:24;;;;;;;48.20;26.93;;;1.30;61.00;;;;;;6263284;28;20681;-56
2021/12/11 00:27:29;;;;;;;47.03;26.53;;;1.10;61.30;;;;;;6264423;28;20246;-55
2021/12/11 00:30:35;;;;;;;54.20;27.77;;;1.00;61.20;;;;;;6262938;28;20324;-56
2021/12/11 00:33:39;;;;;;;53.97;27.53;;;1.10;61.10;;;;;;6263763;28;20245;-55
2021/12/11 00:36:50;;;;;;;55.73;28.63;;;1.00;61.20;;;;;;6261753;28;20294;-55
2021/12/11 00:39:57;;;;;;;50.33;27.97;;;1.10;61.30;;;;;;6265133;28;20543;-55
2021/12/11 00:43:04;;;;;;;51.30;28.20;;;1.30;61.40;;;;;;6267270;28;20268;-56
2021/12/11 00:46:11;;;;;;;53.77;29.70;;;1.20;60.90;;;;;;6258673;28;20605;-57
2021/12/11 00:49:21;;;;;;;57.03;27.20;;;1.00;60.80;;;;;;6265406;28;20296;-55
2021/12/11 00:52:29;;;;;;;59.70;30.00;;;1.20;61.50;;;;;;6275662;28;20352;-57
2021/12/11 00:55:34;;;;;;;55.57;27.70;;;1.30;61.70;;;;;;6264499;28;20238;-57
2021/12/11 00:58:40;;;;;;;57.33;27.10;;;1.50;61.00;;;;;;6260333;28;20738;-56
2021/12/11 01:01:49;;;;;;;47.50;26.30;;;1.40;60.60;;;;;;6277619;28;20237;-57
2021/12/11 01:04:53;;;;;;;48.03;27.07;;;1.10;60.70;;;;;;6284414;28;20355;-56
2021/12/11 01:07:55;;;;;;;47.93;24.40;;;1.30;61.00;;;;;;6273774;28;20244;-57
2021/12/11 01:11:06;;;;;;;50.57;27.00;;;1.40;60.40;;;;;;6263356;28;20228;-55
2021/12/11 01:14:18;;;;;;;42.27;25.17;;;1.30;60.40;;;;;;6271061;28;20241;-55
2021/12/11 01:17:37;;;;;;;42.53;24.57;;;1.30;60.30;;;;;;6263262;28;20245;-56
2021/12/11 01:20:49;;;;;;;39.47;23.53;;;1.00;60.40;;;;;;6253481;28;20785;-55
2021/12/11 01:24:08;;;;;;;39.07;22.80;;;0.90;59.50;;;;;;6261104;28;20448;-56
2021/12/11 01:27:14;;;;;;;39.67;25.27;;;0.80;59.90;;;;;;6263416;28;20248;-57
2021/12/11 01:30:22;;;;;;;45.77;25.93;;;0.90;60.80;;;;;;6281790;28;20706;-57
2021/12/11 01:33:25;;;;;;;45.60;24.73;;;0.80;60.80;;;;;;6286505;28;20236;-57
2021/12/11 01:36:28;;;;;;;48.43;25.50;;;1.00;61.10;;;;;;6285233;28;20328;-56
2021/12/11 01:39:33;;;;;;;56.77;27.93;;;1.00;60.50;;;;;;6284289;28;20234;-56
2021/12/11 01:42:38;;;;;;;53.90;27.93;;;1.00;61.20;;;;;;6260775;28;20651;-56
2021/12/11 01:45:53;;;;;;;46.87;26.63;;;1.20;60.60;;;;;;6266192;28;20241;-56
2021/12/11 01:49:00;;;;;;;45.53;25.50;;;0.90;61.00;;;;;;6265825;28;20238;-56
2021/12/11 01:52:10;;;;;;;46.63;26.60;;;1.10;61.10;;;;;;6271480;28;20288;-57
2021/12/11 01:55:21;;;;;;;41.53;25.67;;;1.20;60.30;;;;;;6261581;28;20253;-56
2021/12/11 01:58:29;;;;;;;43.77;26.10;;;1.00;60.90;;;;;;6263800;28;20344;-55
2021/12/11 02:01:37;;;;;;;49.67;28.80;;;0.80;60.50;;;;;;6271750;28;20368;-57
2021/12/11 02:04:43;;;;;;;49.73;28.63;;;1.10;60.00;;;;;;6253923;28;20249;-57
2021/12/11 02:07:50;;;;;;;44.67;27.40;;;1.00;60.80;;;;;;6286609;28;20237;-57
2021/12/11 02:10:56;;;;;;;45.93;27.63;;;1.00;60.80;;;;;;6261195;28;20233;-56
2021/12/11 02:14:04;;;;;;;48.27;26.83;;;1.10;60.40;;;;;;6264789;28;20331;-56
2021/12/11 02:17:16;;;;;;;44.87;26.57;;;0.80;59.80;;;;;;6267790;28;20324;-57
2021/12/11 02:20:27;;;;;;;44.07;26.50;;;0.90;60.80;;;;;;6261172;28;20328;-56
2021/12/11 02:23:31;;;;;;;48.47;29.57;;;1.00;61.00;;;;;;6261957;28;20299;-57
2021/12/11 02:26:36;;;;;;;53.47;29.47;;;1.00;60.90;;;;;;6286738;28;20713;-56
2021/12/11 02:29:42;;;;;;;45.97;27.97;;;1.30;61.80;;;;;;6274803;28;20239;-55
2021/12/11 02:32:52;;;;;;;46.57;27.47;;;1.20;61.00;;;;;;6276342;28;20250;-57
2021/12/11 02:36:01;;;;;;;49.63;29.90;;;1.20;60.20;;;;;;6260261;28;20661;-56
2021/12/11 02:39:10;;;;;;;49.83;28.43;;;1.00;60.50;;;;;;6266657;28;20262;-56
2021/12/11 02:42:18;;;;;;;45.83;27.90;;;1.20;60.70;;;;;;6265078;28;20566;-56
2021/12/11 02:45:29;;;;;;;44.07;27.37;;;1.10;60.00;;;;;;6264602;28;20319;-57
2021/12/11 02:48:36;;;;;;;48.70;27.13;;;1.10;57.80;;;;;;6272848;28;20261;-57
2021/12/11 02:51:44;;;;;;;49.53;28.37;;;1.50;58.60;;;;;;6265916;28;20230;-56
2021/12/11 02:54:56;;;;;;;47.50;27.57;;;1.50;58.20;;;;;;6264740;28;20324;-55
2021/12/11 02:58:04;;;;;;;42.57;26.67;;;1.40;58.90;;;;;;6265701;28;20711;-54
2021/12/11 03:01:12;;;;;;;44.50;26.57;;;1.20;59.40;;;;;;6286965;28;20233;-58
2021/12/11 03:04:21;;;;;;;46.57;27.03;;;1.00;59.40;;;;;;6265207;28;20734;-57
2021/12/11 03:07:35;;;;;;;52.23;28.87;;;1.20;59.70;;;;;;6265271;28;20250;-55
2021/12/11 03:10:42;;;;;;;55.87;29.10;;;1.20;59.90;;;;;;6262854;28;20578;-56
2021/12/11 03:13:50;;;;;;;56.70;28.40;;;1.20;60.00;;;;;;6290598;28;20234;-57
2021/12/11 03:16:54;;;;;;;51.33;29.67;;;1.00;59.70;;;;;;6283329;28;20260;-56
2021/12/11 03:19:57;;;;;;;55.23;28.77;;;1.00;59.00;;;;;;6268842;28;20724;-57
2021/12/11 03:23:00;;;;;;;52.70;28.77;;;1.20;59.40;;;;;;6289986;28;20309;-55
2021/12/11 03:26:04;;;;;;;49.33;27.90;;;1.10;59.90;;;;;;6254774;28;20345;-56
2021/12/11 03:29:08;;;;;;;54.23;27.97;;;1.00;59.70;;;;;;6240140;28;20758;-57
2021/12/11 03:32:14;;;;;;;57.40;29.80;;;1.00;60.60;;;;;;6240097;28;20258;-57
2021/12/11 03:35:17;;;;;;;57.13;30.13;;;0.80;60.10;;;;;;6239643;28;20273;-55
2021/12/11 03:38:20;;;;;;;56.27;31.07;;;0.90;60.00;;;;;;6240869;28;20248;-55
2021/12/11 03:41:25;;;;;;;61.10;33.07;;;1.10;60.90;;;;;;6240777;28;21055;-57
2021/12/11 03:44:32;;;;;;;58.20;30.70;;;1.20;60.90;;;;;;6246099;28;20325;-57
2021/12/11 03:47:40;;;;;;;54.80;29.27;;;1.10;60.30;;;;;;6256759;28;20751;-57
2021/12/11 03:50:46;;;;;;;61.60;32.07;;;0.80;60.80;;;;;;6251249;28;20484;-56
2021/12/11 03:53:50;;;;;;;58.37;31.43;;;0.90;61.00;;;;;;6240489;28;20269;-58
2021/12/11 03:56:55;;;;;;;58.07;30.77;;;1.20;60.30;;;;;;6240774;28;20248;-57
2021/12/11 03:59:58;;;;;;;59.97;31.83;;;1.00;60.10;;;;;;6263559;28;20233;-60
2021/12/11 04:03:05;;;;;;;63.07;31.20;;;1.10;60.50;;;;;;6263084;28;20230;-56
2021/12/11 04:06:10;;;;;;;63.70;32.50;;;1.00;61.20;;;;;;6262791;28;20319;-55
2021/12/11 04:09:16;;;;;;;61.50;30.13;;;1.20;60.70;;;;;;6264008;28;20238;-56
2021/12/11 04:12:22;;;;;;;71.43;34.73;;;1.00;61.50;;;;;;6264745;28;20256;-58
2021/12/11 04:15:25;;;;;;;55.70;32.53;;;1.20;61.10;;;;;;6252782;28;20242;-58
2021/12/11 04:18:28;;;;;;;61.07;34.40;;;1.20;61.30;;;;;;6259357;28;20261;-56
2021/12/11 04:21:32;;;;;;;71.13;34.50;;;1.10;61.20;;;;;;6265258;28;20283;-56
2021/12/11 04:24:38;;;;;;;72.70;35.97;;;1.30;61.40;;;;;;6241367;28;20312;-58
2021/12/11 04:27:42;;;;;;;74.10;35.50;;;0.90;61.40;;;;;;6240829;28;20243;-56
2021/12/11 04:30:47;;;;;;;69.27;36.50;;;1.00;61.00;;;;;;6240958;28;20234;-57
2021/12/11 04:33:52;;;;;;;70.20;34.57;;;1.00;60.80;;;;;;6242483;28;20235;-57
2021/12/11 04:37:00;;;;;;;75.27;39.00;;;1.20;61.30;;;;;;6265290;28;20613;-57
2021/12/11 04:40:07;;;;;;;78.63;41.17;;;1.40;61.30;;;;;;6251751;28;20242;-57
2021/12/11 04:43:15;;;;;;;81.67;41.90;;;1.30;61.80;;;;;;6260583;28;20253;-57
2021/12/11 04:46:18;;;;;;;73.33;38.70;;;1.40;61.90;;;;;;6257404;28;20341;-56
2021/12/11 04:49:30;;;;;;;78.93;41.57;;;1.40;61.20;;;;;;6259888;28;20235;-57
2021/12/11 04:52:43;;;;;;;70.97;38.17;;;1.40;60.80;;;;;;6262385;28;20315;-55
2021/12/11 04:55:58;;;;;;;65.83;38.97;;;1.50;61.00;;;;;;6263732;28;20269;-57
2021/12/11 04:59:26;;;;;;;61.07;35.43;;;1.50;61.20;;;;;;6261955;28;20221;-57
2021/12/11 05:02:56;;;;;;;63.50;34.50;;;1.50;61.70;;;;;;6259791;28;20230;-57
2021/12/11 05:06:20;;;;;;;54.73;31.50;;;1.40;60.90;;;;;;6253930;28;20364;-56
2021/12/11 05:09:31;;;;;;;52.80;30.03;;;1.50;60.90;;;;;;6256808;28;20690;-57
2021/12/11 05:12:35;;;;;;;51.20;29.10;;;1.50;61.60;;;;;;6258955;28;20671;-56
2021/12/11 05:15:42;;;;;;;49.43;28.70;;;1.50;61.30;;;;;;6259683;28;20234;-55
2021/12/11 05:18:47;;;;;;;48.30;26.80;;;1.50;61.50;;;;;;6259602;28;20345;-57
2021/12/11 05:21:50;;;;;;;54.60;30.20;;;1.60;61.00;;;;;;6260316;28;20709;-58
2021/12/11 05:24:55;;;;;;;56.70;29.40;;;1.50;60.70;;;;;;6258776;28;20384;-55
2021/12/11 05:27:58;;;;;;;52.43;29.97;;;1.30;61.00;;;;;;6261142;28;20683;-56
2021/12/11 05:31:06;;;;;;;52.73;29.23;;;1.50;60.30;;;;;;6262320;28;20363;-56
2021/12/11 05:34:09;;;;;;;55.57;31.27;;;1.30;61.00;;;;;;6260265;28;20725;-58
2021/12/11 05:37:13;;;;;;;54.07;29.87;;;1.50;60.70;;;;;;6260752;28;20270;-58
2021/12/11 05:40:18;;;;;;;43.87;27.10;;;1.20;60.50;;;;;;6257315;28;20256;-56
2021/12/11 05:43:21;;;;;;;54.43;31.60;;;1.50;61.00;;;;;;6261178;28;20288;-56
2021/12/11 05:46:25;;;;;;;48.17;27.63;;;1.40;60.40;;;;;;6258602;28;20938;-57
2021/12/11 05:49:29;;;;;;;55.13;31.13;;;1.60;60.60;;;;;;6258842;28;20238;-57
2021/12/11 05:52:32;;;;;;;55.83;32.00;;;1.30;60.60;;;;;;6259839;28;20234;-56
2021/12/11 05:55:35;;;;;;;51.37;30.20;;;1.30;60.20;;;;;;6262338;28;20360;-57
2021/12/11 05:58:48;;;;;;;55.30;31.30;;;1.20;61.00;;;;;;6263857;28;20249;-57
2021/12/11 06:01:56;;;;;;;53.00;30.63;;;1.50;61.00;;;;;;6257040;28;20253;-58
2021/12/11 06:04:59;;;;;;;58.23;31.97;;;1.70;60.40;;;;;;6258667;28;20597;-57
2021/12/11 06:08:03;;;;;;;61.53;32.23;;;1.60;61.00;;;;;;6258384;28;20242;-57
2021/12/11 06:11:08;;;;;;;69.53;33.10;;;1.50;60.00;;;;;;6257196;28;20237;-55
2021/12/11 06:14:12;;;;;;;71.97;33.43;;;1.40;60.70;;;;;;6256189;28;20246;-58
2021/12/11 06:17:18;;;;;;;70.10;33.37;;;1.50;60.30;;;;;;6256084;28;20760;-62
2021/12/11 06:20:28;;;;;;;67.00;32.60;;;1.60;60.80;;;;;;6257072;28;20232;-56
2021/12/11 06:23:38;;;;;;;63.07;31.67;;;1.20;60.60;;;;;;6259167;28;20231;-57
2021/12/11 06:26:41;;;;;;;73.47;32.57;;;1.40;60.60;;;;;;6258794;28;20245;-57
2021/12/11 06:29:44;;;;;;;61.97;30.70;;;1.40;59.90;;;;;;6257644;28;20250;-55
2021/12/11 06:32:50;;;;;;;71.53;32.37;;;1.30;60.20;;;;;;6257218;28;20231;-57
2021/12/11 06:35:56;;;;;;;66.03;31.30;;;1.50;60.20;;;;;;6256865;28;20450;-56
2021/12/11 06:39:04;;;;;;;74.07;31.27;;;1.20;61.00;;;;;;6255093;28;20360;-57
2021/12/11 06:42:09;;;;;;;68.73;31.03;;;1.00;60.70;;;;;;6258155;28;20369;-56
2021/12/11 06:45:12;;;;;;;72.17;30.60;;;1.10;60.50;;;;;;6258733;28;20731;-57
2021/12/11 06:48:17;;;;;;;74.20;30.07;;;1.30;60.40;;;;;;6254575;28;20233;-56
2021/12/11 06:51:20;;;;;;;69.27;29.10;;;1.00;60.80;;;;;;6255371;28;20287;-57
2021/12/11 06:54:25;;;;;;;74.97;30.37;;;1.40;60.60;;;;;;6255616;28;20344;-55
2021/12/11 06:57:28;;;;;;;78.60;31.93;;;1.30;61.20;;;;;;6258400;28;20730;-56
2021/12/11 07:00:30;;;;;;;80.17;31.00;;;1.00;60.70;;;;;;6257322;28;20309;-56
2021/12/11 07:03:35;;;;;;;75.63;30.97;;;1.00;60.50;;;;;;6256960;28;20238;-57
2021/12/11 07:06:41;;;;;;;77.60;31.50;;;1.20;60.60;;;;;;6255590;28;20279;-56
2021/12/11 07:09:44;;;;;;;71.47;29.50;;;1.30;60.90;;;;;;6254967;28;20352;-56
2021/12/11 07:12:48;;;;;;;64.40;28.23;;;0.90;60.60;;;;;;6257599;28;20242;-57
2021/12/11 07:15:52;;;;;;;70.90;30.07;;;1.30;61.60;;;;;;6257635;28;20234;-57
2021/12/11 07:18:56;;;;;;;67.80;30.20;;;1.00;60.40;;;;;;6250321;28;20285;-57
2021/12/11 07:21:59;;;;;;;75.70;29.63;;;0.90;60.60;;;;;;6252838;28;20313;-56
2021/12/11 07:25:08;;;;;;;73.73;28.60;;;1.10;60.80;;;;;;6259816;28;20244;-56
2021/12/11 07:28:13;;;;;;;73.80;29.83;;;0.80;61.30;;;;;;6261152;28;20359;-57
2021/12/11 07:31:16;;;;;;;62.03;27.47;;;0.90;61.40;;;;;;6260792;28;20234;-56
2021/12/11 07:34:21;;;;;;;63.83;30.27;;;1.00;61.50;;;;;;6261403;28;20273;-57
2021/12/11 07:37:24;;;;;;;63.67;27.53;;;1.20;60.80;;;;;;6259986;28;20730;-57
2021/12/11 07:40:30;;;;;;;73.03;29.37;;;1.00;60.60;;;;;;6261414;28;20313;-55
2021/12/11 07:43:34;;;;;;;61.23;28.80;;;1.20;61.60;;;;;;6262249;28;20708;-56
2021/12/11 07:46:36;;;;;;;69.73;29.20;;;1.40;61.80;;;;;;6258853;28;20337;-55
2021/12/11 07:49:41;;;;;;;62.93;28.83;;;1.40;61.00;;;;;;6255653;28;20593;-57
2021/12/11 07:52:44;;;;;;;61.57;27.73;;;1.30;61.40;;;;;;6259682;28;20320;-57
2021/12/11 07:55:47;;;;;;;63.57;29.27;;;1.50;61.00;;;;;;6261182;28;20395;-56
2021/12/11 07:58:52;;;;;;;57.53;27.67;;;1.30;60.40;;;;;;6263607;28;20353;-57
2021/12/11 08:01:55;;;;;;;62.17;27.30;;;1.50;60.20;;;;;;6256821;28;20633;-56
2021/12/11 08:04:59;;;;;;;66.10;29.37;;;1.50;59.70;;;;;;6260380;28;20737;-56
2021/12/11 08:08:05;;;;;;;68.97;30.23;;;1.20;59.30;;;;;;6261531;28;20226;-54
2021/12/11 08:11:13;;;;;;;65.63;29.40;;;1.10;60.50;;;;;;6260417;28;20306;-56
2021/12/11 08:14:17;;;;;;;69.00;30.00;;;1.40;60.30;;;;;;6256613;28;20391;-56
2021/12/11 08:17:20;;;;;;;60.90;26.90;;;1.40;60.10;;;;;;6257664;28;20269;-57
2021/12/11 08:20:29;;;;;;;63.43;30.17;;;1.20;60.70;;;;;;6256046;28;20466;-56
2021/12/11 08:23:32;;;;;;;67.93;30.07;;;1.50;61.30;;;;;;6257809;28;21938;-56
2021/12/11 08:26:37;;;;;;;61.23;30.00;;;1.60;60.90;;;;;;6253658;28;20245;-57
2021/12/11 08:29:45;;;;;;;58.47;28.17;;;1.40;60.60;;;;;;6256487;28;20618;-56
2021/12/11 08:32:48;;;;;;;63.37;28.73;;;1.70;60.60;;;;;;6257368;28;20362;-57
2021/12/11 08:35:54;;;;;;;57.73;26.90;;;1.60;60.10;;;;;;6256886;28;20272;-56
2021/12/11 08:38:59;;;;;;;64.47;29.00;;;1.70;60.20;;;;;;6254684;28;20398;-57
2021/12/11 08:42:04;;;;;;;56.67;27.93;;;1.80;59.20;;;;;;6256799;28;20571;-55
2021/12/11 08:45:11;;;;;;;61.17;28.67;;;1.70;59.50;;;;;;6259720;28;20254;-56
2021/12/11 08:48:17;;;;;;;55.10;28.40;;;1.60;59.80;;;;;;6254890;28;20231;-58
2021/12/11 08:51:28;;;;;;;49.30;27.50;;;1.50;59.80;;;;;;6255688;28;20281;-55
2021/12/11 08:54:32;;;;;;;46.37;26.37;;;1.50;59.50;;;;;;6259585;28;20237;-57
2021/12/11 08:57:39;;;;;;;40.63;25.07;;;1.80;57.80;;;;;;6259307;28;20324;-55
2021/12/11 09:00:48;;;;;;;43.97;24.80;;;1.70;57.50;;;;;;6258639;28;20719;-54
2021/12/11 09:03:54;;;;;;;42.30;23.80;;;1.50;57.90;;;;;;6257766;28;20314;-59
2021/12/11 09:07:02;;;;;;;36.17;20.77;;;1.70;57.90;;;;;;6253510;28;20355;-56
2021/12/11 09:10:10;;;;;;;37.43;22.43;;;1.60;55.70;;;;;;6257876;28;20379;-57
2021/12/11 09:13:31;;;;;;;36.20;21.20;;;1.30;55.70;;;;;;6261363;28;20648;-56
2021/12/11 09:16:43;;;;;;;33.63;22.60;;;1.70;55.60;;;;;;6249990;28;20234;-57
2021/12/11 09:19:49;;;;;;;33.77;21.23;;;1.80;55.80;;;;;;6255651;28;20359;-56
2021/12/11 09:22:56;;;;;;;33.37;20.00;;;1.50;55.20;;;;;;6259624;28;21781;-56
2021/12/11 09:26:02;;;;;;;29.97;19.10;;;1.40;55.30;;;;;;6253368;28;20253;-56
2021/12/11 09:29:12;;;;;;;32.07;19.93;;;1.40;55.40;;;;;;6259885;28;20234;-57
2021/12/11 09:32:20;;;;;;;28.13;18.07;;;1.50;55.50;;;;;;6258019;28;20301;-56
2021/12/11 09:35:27;;;;;;;27.17;17.67;;;1.40;54.90;;;;;;6257545;28;20248;-56
2021/12/11 09:38:36;;;;;;;28.23;19.13;;;1.10;54.30;;;;;;6258013;28;20632;-57
2021/12/11 09:41:38;;;;;;;30.43;20.13;;;1.20;55.70;;;;;;6256912;28;20230;-58
2021/12/11 09:44:46;;;;;;;29.47;18.67;;;1.10;56.80;;;;;;6257960;28;20256;-55
2021/12/11 09:47:53;;;;;;;28.57;18.80;;;1.10;56.50;;;;;;6248989;28;20227;-58
2021/12/11 09:51:04;;;;;;;29.90;20.00;;;1.30;57.00;;;;;;6251658;28;20242;-55
2021/12/11 09:54:12;;;;;;;32.33;20.13;;;1.50;55.40;;;;;;6261222;28;20232;-56
2021/12/11 09:57:18;;;;;;;26.53;17.60;;;1.20;55.10;;;;;;6258073;28;20245;-56
2021/12/11 10:00:31;;;;;;;26.37;18.07;;;1.50;55.70;;;;;;6248852;28;20335;-57
2021/12/11 10:03:41;;;;;;;25.37;17.20;;;1.20;53.60;;;;;;6252689;28;20308;-57
2021/12/11 10:07:02;;;;;;;27.90;18.63;;;1.50;53.60;;;;;;6249255;28;20551;-56
2021/12/11 10:10:15;;;;;;;25.90;18.70;;;1.50;54.70;;;;;;6259297;28;20230;-56
2021/12/11 10:13:18;;;;;;;26.00;18.10;;;1.60;55.10;;;;;;6252637;28;20322;-58
2021/12/11 10:16:26;;;;;;;34.83;20.77;;;1.40;55.00;;;;;;6257794;28;20640;-55
2021/12/11 10:19:30;;;;;;;28.43;19.30;;;1.60;54.40;;;;;;6259240;28;20241;-55
2021/12/11 10:22:35;;;;;;;25.77;18.60;;;1.60;54.30;;;;;;6257468;28;20721;-56
2021/12/11 10:25:40;;;;;;;28.30;18.40;;;1.50;53.80;;;;;;6250455;28;20313;-51
2021/12/11 10:28:46;;;;;;;25.80;17.97;;;1.60;54.20;;;;;;6258580;28;20237;-57
2021/12/11 10:31:54;;;;;;;25.77;18.77;;;1.20;53.80;;;;;;6259553;28;20252;-59
2021/12/11 10:35:03;;;;;;;26.47;18.33;;;1.50;55.20;;;;;;6257660;28;20238;-55
2021/12/11 10:38:07;;;;;;;28.40;19.63;;;1.60;53.50;;;;;;6256891;28;20241;-55
2021/12/11 10:41:12;;;;;;;29.17;18.30;;;1.60;54.00;;;;;;6255714;28;20706;-56
2021/12/11 10:44:17;;;;;;;28.10;17.90;;;1.40;53.30;;;;;;6257995;28;20666;-57
2021/12/11 10:47:25;;;;;;;30.20;19.50;;;1.40;52.30;;;;;;6256596;28;20273;-56
2021/12/11 10:50:49;;;;;;;28.27;19.47;;;1.70;53.70;;;;;;6246521;28;20321;-57
2021/12/11 10:53:52;;;;;;;34.10;20.63;;;1.50;53.80;;;;;;6254409;28;20260;-57
2021/12/11 10:56:56;;;;;;;30.63;20.30;;;1.40;54.40;;;;;;6256008;28;20317;-57
2021/12/11 11:00:01;;;;;;;33.83;22.57;;;1.70;54.00;;;;;;6258300;28;20237;-57
2021/12/11 11:03:06;;;;;;;35.57;21.27;;;1.70;54.00;;;;;;6258709;28;20316;-54
2021/12/11 11:06:10;;;;;;;38.37;22.17;;;1.60;55.00;;;;;;6262114;28;20257;-56
2021/12/11 11:09:14;;;;;;;37.13;21.57;;;1.50;54.50;;;;;;6261722;28;20309;-56
2021/12/11 11:12:21;;;;;;;39.67;22.60;;;1.80;54.00;;;;;;6269832;28;20230;-57
2021/12/11 11:15:26;;;;;;;37.27;23.77;;;1.80;52.60;;;;;;6262047;28;20241;-57
2021/12/11 11:18:30;;;;;;;35.07;20.77;;;1.70;54.80;;;;;;6260839;28;20320;-57
2021/12/11 11:21:38;;;;;;;30.17;19.43;;;1.50;54.40;;;;;;6247986;28;20369;-55
2021/12/11 11:24:44;;;;;;;30.30;19.90;;;1.60;52.00;;;;;;6262475;28;20598;-56
2021/12/11 11:27:52;;;;;;;36.67;22.43;;;1.50;52.90;;;;;;6261859;28;20234;-55
2021/12/11 11:30:59;;;;;;;30.70;19.87;;;1.30;54.60;;;;;;6262213;28;20233;-57
2021/12/11 11:34:05;;;;;;;32.97;20.40;;;1.30;55.30;;;;;;6258412;28;20448;-56
2021/12/11 11:37:11;;;;;;;31.83;20.57;;;1.50;56.00;;;;;;6262084;28;20264;-57
2021/12/11 11:40:18;;;;;;;31.93;19.77;;;1.30;55.50;;;;;;6259775;28;20299;-57
2021/12/11 11:43:22;;;;;;;27.97;20.10;;;1.40;55.30;;;;;;6262066;28;20718;-56
2021/12/11 11:46:25;;;;;;;32.03;20.47;;;1.30;55.70;;;;;;6254240;28;20241;-56
2021/12/11 11:49:30;;;;;;;30.60;19.70;;;1.20;55.10;;;;;;6260089;28;20253;-57
2021/12/11 11:52:33;;;;;;;28.90;18.97;;;1.40;55.30;;;;;;6259904;28;20234;-57
2021/12/11 11:55:40;;;;;;;32.87;20.43;;;1.50;54.60;;;;;;6260476;28;20256;-56
2021/12/11 11:58:43;;;;;;;34.43;21.07;;;1.70;55.80;;;;;;6246438;28;20308;-55
2021/12/11 12:01:51;;;;;;;36.50;22.10;;;1.60;51.80;;;;;;6261829;28;20565;-57
2021/12/11 12:04:58;;;;;;;34.53;21.33;;;1.70;51.70;;;;;;6260466;28;20237;-57
2021/12/11 12:08:01;;;;;;;31.33;20.67;;;1.80;50.40;;;;;;6260781;28;20375;-57
2021/12/11 12:11:05;;;;;;;35.60;20.83;;;1.40;51.80;;;;;;6260244;28;20240;-56
2021/12/11 12:14:10;;;;;;;28.40;19.87;;;1.50;53.10;;;;;;6260062;28;20379;-56
2021/12/11 12:17:18;;;;;;;30.23;19.70;;;1.40;53.80;;;;;;6261392;28;20626;-56
2021/12/11 12:20:23;;;;;;;30.37;20.17;;;1.50;54.20;;;;;;6258196;28;20243;-55
2021/12/11 12:23:31;;;;;;;26.67;19.10;;;1.60;54.20;;;;;;6261801;28;20283;-57
2021/12/11 12:26:35;;;;;;;32.10;19.83;;;1.20;52.90;;;;;;6259807;28;20280;-57
2021/12/11 12:29:40;;;;;;;29.00;19.63;;;1.60;52.60;;;;;;6253618;28;20419;-57
2021/12/11 12:32:43;;;;;;;31.90;18.80;;;1.60;54.10;;;;;;6258558;28;20261;-56
2021/12/11 12:35:49;;;;;;;26.70;18.10;;;1.50;54.50;;;;;;6261939;28;20288;-55
2021/12/11 12:38:54;;;;;;;28.47;19.10;;;1.40;52.90;;;;;;6251500;28;20248;-56
2021/12/11 12:42:15;;;;;;;33.47;20.13;;;1.70;52.00;;;;;;6253838;28;20638;-57
2021/12/11 12:45:21;;;;;;;24.33;18.03;;;1.80;51.90;;;;;;6260453;28;20312;-56
2021/12/11 12:48:24;;;;;;;27.73;18.07;;;1.60;52.60;;;;;;6258443;28;20234;-55
2021/12/11 12:51:30;;;;;;;24.50;17.93;;;1.80;51.60;;;;;;6257325;28;20254;-56
2021/12/11 12:54:34;;;;;;;23.03;17.53;;;1.70;52.30;;;;;;6264399;28;20311;-55
2021/12/11 12:57:40;;;;;;;22.33;17.20;;;1.60;53.30;;;;;;6259924;28;20560;-58
2021/12/11 13:00:46;;;;;;;23.97;18.40;;;1.80;52.60;;;;;;6258181;28;20300;-56
2021/12/11 13:03:50;;;;;;;22.07;16.23;;;2.00;52.70;;;;;;6258488;28;20292;-56
2021/12/11 13:06:57;;;;;;;18.70;15.90;;;1.80;48.30;;;;;;6256554;28;20252;-56
2021/12/11 13:10:03;;;;;;;20.33;16.10;;;1.90;50.00;;;;;;6256374;28;20317;-55
2021/12/11 13:13:07;;;;;;;23.37;16.83;;;1.50;49.40;;;;;;6245546;28;20226;-55
2021/12/11 13:16:15;;;;;;;21.37;16.40;;;1.60;51.30;;;;;;6255007;28;20230;-55
2021/12/11 13:19:21;;;;;;;21.37;17.03;;;1.60;51.30;;;;;;6258538;28;20294;-57
2021/12/11 13:22:29;;;;;;;23.30;18.03;;;1.70;51.50;;;;;;6258845;28;20246;-56
2021/12/11 13:25:40;;;;;;;25.47;18.83;;;1.70;51.80;;;;;;6253872;28;20370;-55
2021/12/11 13:28:48;;;;;;;25.87;20.20;;;1.60;52.30;;;;;;6262772;28;20268;-57
2021/12/11 13:32:00;;;;;;;26.33;19.43;;;1.80;50.90;;;;;;6256841;28;20241;-54
2021/12/11 13:35:09;;;;;;;24.97;18.83;;;1.80;51.40;;;;;;6253882;28;20372;-56
2021/12/11 13:38:16;;;;;;;25.03;19.47;;;1.70;51.50;;;;;;6261102;28;20265;-55
2021/12/11 13:41:22;;;;;;;26.83;18.53;;;1.80;53.10;;;;;;6260471;28;20230;-59
2021/12/11 13:44:45;;;;;;;26.00;19.33;;;1.80;53.30;;;;;;6258722;28;20234;-55
2021/12/11 13:47:49;;;;;;;25.47;17.87;;;1.50;53.20;;;;;;6258030;28;20321;-56
2021/12/11 13:50:55;;;;;;;23.97;17.33;;;1.70;52.80;;;;;;6257805;28;20242;-55
2021/12/11 13:54:01;;;;;;;25.53;19.63;;;1.90;51.20;;;;;;6258408;28;20241;-55
2021/12/11 13:57:06;;;;;;;32.57;20.13;;;1.80;50.60;;;;;;6262995;28;20312;-55
2021/12/11 14:00:13;;;;;;;30.73;20.73;;;1.90;53.30;;;;;;6254020;28;20248;-55
2021/12/11 14:03:37;;;;;;;27.50;18.87;;;1.80;54.20;;;;;;6262158;28;20326;-55
2021/12/11 14:06:48;;;;;;;29.20;20.10;;;1.10;53.60;;;;;;6256215;28;20540;-57
2021/12/11 14:09:55;;;;;;;28.83;19.73;;;1.50;54.00;;;;;;6256905;28;20307;-55
2021/12/11 14:13:00;;;;;;;27.93;19.83;;;1.70;53.20;;;;;;6259983;28;20774;-57
2021/12/11 14:16:05;;;;;;;30.23;21.10;;;1.70;53.70;;;;;;6258589;28;20241;-56
2021/12/11 14:19:09;;;;;;;27.40;20.10;;;1.70;53.70;;;;;;6260223;28;20234;-55
2021/12/11 14:22:14;;;;;;;28.47;19.67;;;1.70;54.20;;;;;;6258743;28;20891;-55
2021/12/11 14:25:20;;;;;;;29.73;20.53;;;1.60;54.30;;;;;;6255512;28;20321;-57
2021/12/11 14:28:28;;;;;;;29.20;19.33;;;1.60;54.10;;;;;;6255065;28;20246;-56
2021/12/11 14:31:32;;;;;;;25.43;17.50;;;1.30;55.80;;;;;;6258981;28;20457;-55
2021/12/11 14:34:34;;;;;;;24.43;17.97;;;1.60;55.50;;;;;;6263667;28;20225;-55
2021/12/11 14:37:37;;;;;;;26.33;18.37;;;1.70;55.70;;;;;;6261786;28;20961;-55
2021/12/11 14:40:44;;;;;;;25.50;18.40;;;1.40;54.70;;;;;;6266672;28;20786;-54
2021/12/11 14:43:48;;;;;;;29.40;18.37;;;1.60;55.50;;;;;;6251996;28;20236;-55
2021/12/11 14:46:53;;;;;;;23.50;17.23;;;1.50;55.50;;;;;;6259103;28;20843;-55
2021/12/11 14:49:56;;;;;;;23.80;18.63;;;1.50;56.40;;;;;;6266904;28;20222;-56
2021/12/11 14:53:00;;;;;;;23.67;18.20;;;1.50;55.70;;;;;;6263409;28;20387;-57
2021/12/11 14:56:08;;;;;;;25.87;18.00;;;1.20;56.40;;;;;;6265526;28;20314;-56
2021/12/11 14:59:15;;;;;;;22.47;16.87;;;1.10;56.70;;;;;;6263109;28;20439;-55
2021/12/11 15:02:24;;;;;;;23.53;17.33;;;1.20;57.10;;;;;;6264920;28;20855;-54
2021/12/11 15:05:32;;;;;;;29.00;18.53;;;1.40;57.40;;;;;;6265631;28;20708;-56
2021/12/11 15:08:36;;;;;;;30.30;18.87;;;1.30;58.00;;;;;;6265602;28;20657;-56
2021/12/11 15:11:42;;;;;;;28.13;17.93;;;1.50;57.10;;;;;;6263611;28;20912;-55
2021/12/11 15:14:46;;;;;;;30.80;18.53;;;1.10;58.30;;;;;;6265754;28;20279;-55
2021/12/11 15:17:49;;;;;;;28.93;18.23;;;1.10;57.70;;;;;;6265573;28;20248;-56
2021/12/11 15:20:55;;;;;;;29.23;19.67;;;1.10;57.00;;;;;;6265237;28;20811;-57
2021/12/11 15:24:00;;;;;;;29.00;19.13;;;1.00;57.70;;;;;;6265337;28;20638;-55
2021/12/11 15:27:07;;;;;;;26.40;18.03;;;1.20;57.90;;;;;;6265110;28;20296;-56
2021/12/11 15:30:13;;;;;;;24.23;17.87;;;1.20;57.30;;;;;;6263855;28;20399;-56
2021/12/11 15:33:16;;;;;;;27.83;18.53;;;1.20;56.50;;;;;;6265481;28;20238;-56
2021/12/11 15:36:22;;;;;;;25.00;17.63;;;1.30;57.50;;;;;;6264665;28;20307;-56
2021/12/11 15:39:27;;;;;;;24.40;17.90;;;1.10;56.60;;;;;;6266860;28;20249;-57
2021/12/11 15:42:31;;;;;;;24.53;17.93;;;1.00;57.70;;;;;;6263815;28;20258;-56
2021/12/11 15:45:36;;;;;;;27.70;18.47;;;1.10;58.30;;;;;;6258951;28;20725;-55
2021/12/11 15:48:40;;;;;;;24.00;17.57;;;0.90;58.00;;;;;;6262020;28;22026;-55
2021/12/11 15:51:44;;;;;;;28.53;18.63;;;1.20;58.30;;;;;;6261887;28;20276;-56
2021/12/11 15:54:47;;;;;;;25.07;17.90;;;0.80;57.30;;;;;;6261836;28;20344;-56
2021/12/11 15:57:53;;;;;;;27.27;19.17;;;1.10;58.40;;;;;;6252977;28;20314;-56